Time,TemperatureF,DewpointF,PressureIn,WindDirection,WindDirectionDegrees,WindSpeedMPH,WindSpeedGustMPH,Humidity,HourlyPrecipIn,Conditions,Clouds,dailyrainin,SoftwareType,DateUTC
2014-09-22 00:13:00,60.0,59.0,30.00,ENE,61,1.0,2.0,95,0.00,,,0.03,,2014-09-22 04:13:00,
2014-09-22 00:24:00,60.0,58.0,30.00,SE,131,0.0,3.0,93,0.00,,,0.03,,2014-09-22 04:24:00,
2014-09-22 00:53:00,60.0,58.0,30.02,WSW,238,0.0,3.0,94,0.00,,,0.03,,2014-09-22 04:53:00,
2014-09-22 01:23:00,60.0,57.0,30.02,ESE,106,1.0,5.0,90,0.00,,,0.03,,2014-09-22 05:23:00,
2014-09-22 01:53:00,59.0,56.0,30.02,SSE,165,1.0,3.0,90,0.00,,,0.03,,2014-09-22 05:53:00,
2014-09-22 02:12:00,58.0,55.0,30.02,SE,146,1.0,3.0,91,0.00,,,0.03,,2014-09-22 06:12:00,
2014-09-22 02:22:00,57.0,54.0,30.02,SE,139,0.0,3.0,90,0.00,,,0.03,,2014-09-22 06:22:00,
2014-09-22 02:52:00,55.0,53.0,30.03,SE,139,0.0,1.0,92,0.00,,,0.03,,2014-09-22 06:52:00,
2014-09-22 03:12:00,54.0,52.0,30.03,SE,139,0.0,1.0,92,0.00,,,0.03,,2014-09-22 07:12:00,
2014-09-22 03:22:00,54.0,52.0,30.03,SE,127,0.0,1.0,92,0.00,,,0.03,,2014-09-22 07:22:00,
2014-09-22 03:52:00,53.0,51.0,30.03,SE,125,0.0,2.0,92,0.00,,,0.03,,2014-09-22 07:52:00,
2014-09-22 04:22:00,52.0,50.0,30.03,SE,125,0.0,2.0,93,0.00,,,0.03,,2014-09-22 08:22:00,
2014-09-22 04:52:00,51.0,49.0,30.03,NNE,32,1.0,2.0,94,0.00,,,0.03,,2014-09-22 08:52:00,
2014-09-22 05:12:00,51.0,49.0,30.03,ESE,111,1.0,2.0,93,0.00,,,0.03,,2014-09-22 09:12:00,
2014-09-22 05:23:00,51.0,49.0,30.03,NE,47,0.0,2.0,93,0.00,,,0.03,,2014-09-22 09:23:00,
2014-09-22 05:54:00,51.0,49.0,30.04,NE,48,0.0,1.0,93,0.00,,,0.03,,2014-09-22 09:54:00,
2014-09-22 06:24:00,50.0,48.0,30.05,NE,48,0.0,1.0,94,0.00,,,0.03,,2014-09-22 10:24:00,
2014-09-22 06:54:00,50.0,49.0,30.05,ENE,62,1.0,7.0,95,0.00,,,0.03,,2014-09-22 10:54:00,
2014-09-22 07:23:00,51.0,49.0,30.05,ESE,113,2.0,5.0,93,0.00,,,0.03,,2014-09-22 11:23:00,
2014-09-22 07:52:00,51.0,48.0,30.04,East,96,2.0,12.0,90,0.01,,,0.04,,2014-09-22 11:52:00,
2014-09-22 08:23:00,51.0,48.0,30.04,ENE,69,2.0,12.0,90,0.01,,,0.04,,2014-09-22 12:23:00,
2014-09-22 08:42:00,51.0,48.0,30.05,East,91,3.0,8.0,91,0.01,,,0.04,,2014-09-22 12:42:00,
2014-09-22 08:53:00,52.0,49.0,30.06,East,88,2.0,9.0,89,0.00,,,0.04,,2014-09-22 12:53:00,
2014-09-22 09:22:00,54.0,50.0,30.09,ENE,57,3.0,7.0,86,0.00,,,0.04,,2014-09-22 13:22:00,
2014-09-22 09:52:00,56.0,51.0,30.09,East,83,3.0,9.0,82,0.00,,,0.04,,2014-09-22 13:52:00,
2014-09-22 10:22:00,58.0,51.0,30.08,East,98,3.0,16.0,78,0.00,,,0.04,,2014-09-22 14:22:00,
2014-09-22 10:52:00,59.0,52.0,30.09,SE,136,3.0,9.0,78,0.00,,,0.04,,2014-09-22 14:52:00,
2014-09-22 11:22:00,61.0,52.0,30.10,ESE,102,3.0,12.0,73,0.00,,,0.04,,2014-09-22 15:22:00,
2014-09-22 11:55:00,64.0,52.0,30.11,NNE,17,3.0,12.0,66,0.00,,,0.04,,2014-09-22 15:55:00,
2014-09-22 12:24:00,66.0,53.0,30.13,SSE,152,2.0,7.0,62,0.00,,,0.04,,2014-09-22 16:24:00,
2014-09-22 12:54:00,68.0,53.0,30.12,NNE,32,3.0,7.0,59,0.00,,,0.04,,2014-09-22 16:54:00,
2014-09-22 13:53:00,69.0,53.0,30.14,SSW,212,2.0,7.0,57,0.00,,,0.04,,2014-09-22 17:53:00,